sensor_id;sensor_type;location;lat;lon;timestamp;P1;durP1;ratioP1;P2;durP2;ratioP2
1765;SDS011;880;52.452;8.656;2023-07-29T00:00:50;8.00;;;7.38;;
1765;SDS011;880;52.452;8.656;2023-07-29T00:03:17;7.70;;;6.90;;
1765;SDS011;880;52.452;8.656;2023-07-29T00:05:44;7.63;;;6.80;;
1765;SDS011;880;52.452;8.656;2023-07-29T00:08:11;9.88;;;7.18;;
1765;SDS011;880;52.452;8.656;2023-07-29T00:10:38;6.47;;;5.95;;
1765;SDS011;880;52.452;8.656;2023-07-29T00:13:06;8.27;;;7.03;;
1765;SDS011;880;52.452;8.656;2023-07-29T00:15:34;8.05;;;7.30;;
1765;SDS011;880;52.452;8.656;2023-07-29T00:18:01;8.00;;;7.30;;
1765;SDS011;880;52.452;8.656;2023-07-29T00:20:28;7.97;;;7.18;;
1765;SDS011;880;52.452;8.656;2023-07-29T00:22:55;9.32;;;7.45;;
1765;SDS011;880;52.452;8.656;2023-07-29T00:25:24;6.90;;;6.38;;
1765;SDS011;880;52.452;8.656;2023-07-29T00:27:51;8.00;;;7.30;;
1765;SDS011;880;52.452;8.656;2023-07-29T00:30:20;7.78;;;7.03;;
1765;SDS011;880;52.452;8.656;2023-07-29T00:32:48;7.70;;;7.00;;
1765;SDS011;880;52.452;8.656;2023-07-29T00:35:15;7.32;;;6.68;;
1765;SDS011;880;52.452;8.656;2023-07-29T00:37:42;7.75;;;7.05;;
1765;SDS011;880;52.452;8.656;2023-07-29T00:40:19;7.18;;;6.57;;
1765;SDS011;880;52.452;8.656;2023-07-29T00:42:48;7.25;;;6.55;;
1765;SDS011;880;52.452;8.656;2023-07-29T00:45:16;6.68;;;6.07;;
1765;SDS011;880;52.452;8.656;2023-07-29T00:47:45;6.60;;;6.03;;
1765;SDS011;880;52.452;8.656;2023-07-29T00:50:12;6.68;;;6.13;;
1765;SDS011;880;52.452;8.656;2023-07-29T00:52:41;7.72;;;7.13;;
1765;SDS011;880;52.452;8.656;2023-07-29T00:55:08;6.80;;;6.20;;
1765;SDS011;880;52.452;8.656;2023-07-29T00:57:36;7.05;;;6.35;;
1765;SDS011;880;52.452;8.656;2023-07-29T01:00:03;7.03;;;6.38;;
1765;SDS011;880;52.452;8.656;2023-07-29T01:02:31;9.15;;;6.32;;
1765;SDS011;880;52.452;8.656;2023-07-29T01:04:59;7.05;;;6.18;;
1765;SDS011;880;52.452;8.656;2023-07-29T01:07:31;7.40;;;6.70;;
1765;SDS011;880;52.452;8.656;2023-07-29T01:10:16;6.90;;;6.13;;
1765;SDS011;880;52.452;8.656;2023-07-29T01:15:43;7.35;;;6.38;;
1765;SDS011;880;52.452;8.656;2023-07-29T01:18:29;7.05;;;6.35;;
1765;SDS011;880;52.452;8.656;2023-07-29T01:20:59;7.10;;;6.47;;
1765;SDS011;880;52.452;8.656;2023-07-29T01:23:30;8.85;;;7.57;;
1765;SDS011;880;52.452;8.656;2023-07-29T01:25:58;7.30;;;6.68;;
1765;SDS011;880;52.452;8.656;2023-07-29T01:28:26;8.35;;;7.32;;
1765;SDS011;880;52.452;8.656;2023-07-29T01:31:01;7.78;;;7.07;;
1765;SDS011;880;52.452;8.656;2023-07-29T01:33:47;8.15;;;7.35;;
1765;SDS011;880;52.452;8.656;2023-07-29T01:36:26;6.57;;;5.97;;
1765;SDS011;880;52.452;8.656;2023-07-29T01:38:56;6.43;;;5.80;;
1765;SDS011;880;52.452;8.656;2023-07-29T01:41:24;6.88;;;6.28;;
1765;SDS011;880;52.452;8.656;2023-07-29T01:43:52;7.05;;;6.45;;
1765;SDS011;880;52.452;8.656;2023-07-29T01:46:19;7.05;;;6.45;;
1765;SDS011;880;52.452;8.656;2023-07-29T01:48:47;6.18;;;5.45;;
1765;SDS011;880;52.452;8.656;2023-07-29T01:51:14;6.75;;;6.20;;
1765;SDS011;880;52.452;8.656;2023-07-29T01:53:41;6.88;;;5.78;;
1765;SDS011;880;52.452;8.656;2023-07-29T01:56:08;7.07;;;6.53;;
1765;SDS011;880;52.452;8.656;2023-07-29T01:58:39;8.38;;;6.57;;
1765;SDS011;880;52.452;8.656;2023-07-29T02:01:06;7.22;;;6.57;;
1765;SDS011;880;52.452;8.656;2023-07-29T02:03:33;6.60;;;5.97;;
1765;SDS011;880;52.452;8.656;2023-07-29T02:06:00;7.47;;;6.78;;
1765;SDS011;880;52.452;8.656;2023-07-29T02:08:27;7.28;;;6.57;;
1765;SDS011;880;52.452;8.656;2023-07-29T02:10:54;7.15;;;6.45;;
1765;SDS011;880;52.452;8.656;2023-07-29T02:13:21;6.75;;;6.15;;
1765;SDS011;880;52.452;8.656;2023-07-29T02:15:48;7.43;;;6.82;;
1765;SDS011;880;52.452;8.656;2023-07-29T02:18:15;7.93;;;7.25;;
1765;SDS011;880;52.452;8.656;2023-07-29T02:20:43;7.50;;;6.90;;
1765;SDS011;880;52.452;8.656;2023-07-29T02:23:15;7.78;;;7.15;;
1765;SDS011;880;52.452;8.656;2023-07-29T02:25:45;7.38;;;6.78;;
1765;SDS011;880;52.452;8.656;2023-07-29T02:28:12;8.02;;;6.93;;
1765;SDS011;880;52.452;8.656;2023-07-29T02:30:40;7.60;;;6.85;;
1765;SDS011;880;52.452;8.656;2023-07-29T02:33:08;8.05;;;7.25;;
1765;SDS011;880;52.452;8.656;2023-07-29T02:35:35;8.23;;;7.53;;
1765;SDS011;880;52.452;8.656;2023-07-29T02:38:03;7.97;;;7.28;;
1765;SDS011;880;52.452;8.656;2023-07-29T02:40:30;9.38;;;7.47;;
1765;SDS011;880;52.452;8.656;2023-07-29T02:42:57;8.07;;;7.30;;
1765;SDS011;880;52.452;8.656;2023-07-29T02:45:24;8.13;;;7.35;;
1765;SDS011;880;52.452;8.656;2023-07-29T02:47:51;8.90;;;8.20;;
1765;SDS011;880;52.452;8.656;2023-07-29T02:50:19;7.47;;;6.88;;
1765;SDS011;880;52.452;8.656;2023-07-29T02:52:47;8.13;;;7.38;;
1765;SDS011;880;52.452;8.656;2023-07-29T02:55:17;7.18;;;6.47;;
1765;SDS011;880;52.452;8.656;2023-07-29T02:57:44;8.68;;;6.45;;
1765;SDS011;880;52.452;8.656;2023-07-29T03:00:11;6.93;;;6.15;;
1765;SDS011;880;52.452;8.656;2023-07-29T03:02:39;7.75;;;6.70;;
1765;SDS011;880;52.452;8.656;2023-07-29T03:05:06;6.65;;;6.13;;
1765;SDS011;880;52.452;8.656;2023-07-29T03:07:34;6.20;;;5.60;;
1765;SDS011;880;52.452;8.656;2023-07-29T03:10:01;6.35;;;5.75;;
1765;SDS011;880;52.452;8.656;2023-07-29T03:12:28;7.30;;;6.22;;
1765;SDS011;880;52.452;8.656;2023-07-29T03:14:56;6.57;;;5.82;;
1765;SDS011;880;52.452;8.656;2023-07-29T03:17:23;6.07;;;5.50;;
1765;SDS011;880;52.452;8.656;2023-07-29T03:19:50;6.93;;;5.88;;
1765;SDS011;880;52.452;8.656;2023-07-29T03:22:17;6.15;;;5.57;;
1765;SDS011;880;52.452;8.656;2023-07-29T03:24:44;6.85;;;6.18;;
1765;SDS011;880;52.452;8.656;2023-07-29T03:27:11;6.25;;;5.75;;
1765;SDS011;880;52.452;8.656;2023-07-29T03:29:38;6.07;;;5.45;;
1765;SDS011;880;52.452;8.656;2023-07-29T03:32:05;5.78;;;5.18;;
1765;SDS011;880;52.452;8.656;2023-07-29T03:34:33;5.35;;;4.93;;
1765;SDS011;880;52.452;8.656;2023-07-29T03:37:00;5.28;;;4.88;;
1765;SDS011;880;52.452;8.656;2023-07-29T03:39:27;6.80;;;5.88;;
1765;SDS011;880;52.452;8.656;2023-07-29T03:41:55;5.90;;;5.40;;
1765;SDS011;880;52.452;8.656;2023-07-29T03:44:22;7.32;;;5.57;;
1765;SDS011;880;52.452;8.656;2023-07-29T03:46:49;7.40;;;5.80;;
1765;SDS011;880;52.452;8.656;2023-07-29T03:49:16;6.25;;;5.75;;
1765;SDS011;880;52.452;8.656;2023-07-29T03:51:43;6.15;;;5.55;;
1765;SDS011;880;52.452;8.656;2023-07-29T03:54:11;6.72;;;5.90;;
1765;SDS011;880;52.452;8.656;2023-07-29T03:56:38;6.25;;;5.75;;
1765;SDS011;880;52.452;8.656;2023-07-29T03:59:05;6.82;;;6.13;;
1765;SDS011;880;52.452;8.656;2023-07-29T04:01:33;7.22;;;6.53;;
1765;SDS011;880;52.452;8.656;2023-07-29T04:04:00;6.82;;;6.28;;
1765;SDS011;880;52.452;8.656;2023-07-29T04:06:27;7.32;;;6.72;;
1765;SDS011;880;52.452;8.656;2023-07-29T04:08:54;8.55;;;7.38;;
1765;SDS011;880;52.452;8.656;2023-07-29T04:11:22;8.40;;;7.63;;
1765;SDS011;880;52.452;8.656;2023-07-29T04:13:50;7.72;;;7.13;;
1765;SDS011;880;52.452;8.656;2023-07-29T04:16:17;7.20;;;6.55;;
1765;SDS011;880;52.452;8.656;2023-07-29T04:18:44;8.05;;;7.35;;
1765;SDS011;880;52.452;8.656;2023-07-29T04:21:11;8.50;;;7.47;;
1765;SDS011;880;52.452;8.656;2023-07-29T04:23:38;8.20;;;7.35;;
1765;SDS011;880;52.452;8.656;2023-07-29T04:26:06;7.47;;;6.90;;
1765;SDS011;880;52.452;8.656;2023-07-29T04:28:33;8.05;;;7.35;;
1765;SDS011;880;52.452;8.656;2023-07-29T04:31:00;7.85;;;7.00;;
1765;SDS011;880;52.452;8.656;2023-07-29T04:33:29;8.07;;;7.38;;
1765;SDS011;880;52.452;8.656;2023-07-29T04:35:58;8.77;;;7.88;;
1765;SDS011;880;52.452;8.656;2023-07-29T04:38:29;7.70;;;7.05;;
1765;SDS011;880;52.452;8.656;2023-07-29T04:43:30;7.57;;;6.82;;
1765;SDS011;880;52.452;8.656;2023-07-29T04:45:58;7.47;;;6.78;;
1765;SDS011;880;52.452;8.656;2023-07-29T04:48:26;8.52;;;7.82;;
1765;SDS011;880;52.452;8.656;2023-07-29T04:50:53;10.40;;;7.82;;
1765;SDS011;880;52.452;8.656;2023-07-29T04:53:20;8.93;;;8.10;;
1765;SDS011;880;52.452;8.656;2023-07-29T04:55:47;10.57;;;8.45;;
1765;SDS011;880;52.452;8.656;2023-07-29T04:58:14;10.68;;;9.43;;
1765;SDS011;880;52.452;8.656;2023-07-29T05:00:42;10.00;;;9.02;;
1765;SDS011;880;52.452;8.656;2023-07-29T05:03:09;9.90;;;9.00;;
1765;SDS011;880;52.452;8.656;2023-07-29T05:05:36;10.90;;;9.77;;
1765;SDS011;880;52.452;8.656;2023-07-29T05:08:03;11.52;;;10.38;;
1765;SDS011;880;52.452;8.656;2023-07-29T05:10:30;11.38;;;10.27;;
1765;SDS011;880;52.452;8.656;2023-07-29T05:12:57;10.27;;;9.20;;
1765;SDS011;880;52.452;8.656;2023-07-29T05:15:25;11.82;;;10.60;;
1765;SDS011;880;52.452;8.656;2023-07-29T05:17:52;13.25;;;9.85;;
1765;SDS011;880;52.452;8.656;2023-07-29T05:20:19;11.00;;;9.90;;
1765;SDS011;880;52.452;8.656;2023-07-29T05:22:46;10.32;;;9.27;;
1765;SDS011;880;52.452;8.656;2023-07-29T05:25:13;10.80;;;9.70;;
1765;SDS011;880;52.452;8.656;2023-07-29T05:27:40;12.70;;;11.20;;
1765;SDS011;880;52.452;8.656;2023-07-29T05:30:07;12.10;;;10.65;;
1765;SDS011;880;52.452;8.656;2023-07-29T05:32:35;10.70;;;9.70;;
1765;SDS011;880;52.452;8.656;2023-07-29T05:35:02;11.63;;;10.55;;
1765;SDS011;880;52.452;8.656;2023-07-29T05:37:30;13.93;;;10.73;;
1765;SDS011;880;52.452;8.656;2023-07-29T05:39:57;14.35;;;12.10;;
1765;SDS011;880;52.452;8.656;2023-07-29T05:42:25;13.20;;;11.25;;
1765;SDS011;880;52.452;8.656;2023-07-29T05:44:52;12.23;;;11.02;;
1765;SDS011;880;52.452;8.656;2023-07-29T05:47:19;13.10;;;11.65;;
1765;SDS011;880;52.452;8.656;2023-07-29T05:49:46;10.95;;;9.95;;
1765;SDS011;880;52.452;8.656;2023-07-29T05:52:14;12.48;;;11.25;;
1765;SDS011;880;52.452;8.656;2023-07-29T05:54:41;11.95;;;10.85;;
1765;SDS011;880;52.452;8.656;2023-07-29T05:57:10;12.35;;;11.15;;
1765;SDS011;880;52.452;8.656;2023-07-29T05:59:40;11.95;;;10.60;;
1765;SDS011;880;52.452;8.656;2023-07-29T06:02:07;11.80;;;10.70;;
1765;SDS011;880;52.452;8.656;2023-07-29T06:04:34;12.90;;;11.57;;
1765;SDS011;880;52.452;8.656;2023-07-29T06:07:01;12.85;;;11.65;;
1765;SDS011;880;52.452;8.656;2023-07-29T06:09:28;13.00;;;11.68;;
1765;SDS011;880;52.452;8.656;2023-07-29T06:11:55;12.50;;;11.20;;
1765;SDS011;880;52.452;8.656;2023-07-29T06:14:22;12.00;;;10.77;;
1765;SDS011;880;52.452;8.656;2023-07-29T06:16:50;12.80;;;11.40;;
1765;SDS011;880;52.452;8.656;2023-07-29T06:19:17;12.63;;;11.32;;
1765;SDS011;880;52.452;8.656;2023-07-29T06:21:46;12.98;;;11.75;;
1765;SDS011;880;52.452;8.656;2023-07-29T06:24:13;14.80;;;12.05;;
1765;SDS011;880;52.452;8.656;2023-07-29T06:26:40;14.02;;;12.60;;
1765;SDS011;880;52.452;8.656;2023-07-29T06:29:07;15.65;;;13.40;;
1765;SDS011;880;52.452;8.656;2023-07-29T06:31:34;14.48;;;12.77;;
1765;SDS011;880;52.452;8.656;2023-07-29T06:34:01;14.35;;;12.95;;
1765;SDS011;880;52.452;8.656;2023-07-29T06:36:28;15.60;;;14.10;;
1765;SDS011;880;52.452;8.656;2023-07-29T06:38:55;15.07;;;13.57;;
1765;SDS011;880;52.452;8.656;2023-07-29T06:41:22;16.52;;;14.43;;
1765;SDS011;880;52.452;8.656;2023-07-29T06:43:49;17.70;;;14.60;;
1765;SDS011;880;52.452;8.656;2023-07-29T06:46:16;16.67;;;15.07;;
1765;SDS011;880;52.452;8.656;2023-07-29T06:48:43;15.57;;;13.90;;
1765;SDS011;880;52.452;8.656;2023-07-29T06:51:10;17.38;;;14.82;;
1765;SDS011;880;52.452;8.656;2023-07-29T06:53:38;17.58;;;14.95;;
1765;SDS011;880;52.452;8.656;2023-07-29T06:56:05;18.25;;;15.77;;
1765;SDS011;880;52.452;8.656;2023-07-29T06:58:32;18.38;;;16.20;;
1765;SDS011;880;52.452;8.656;2023-07-29T07:01:00;20.27;;;16.30;;
1765;SDS011;880;52.452;8.656;2023-07-29T07:03:27;21.08;;;18.33;;
1765;SDS011;880;52.452;8.656;2023-07-29T07:05:55;20.95;;;17.95;;
1765;SDS011;880;52.452;8.656;2023-07-29T07:08:22;21.40;;;18.55;;
1765;SDS011;880;52.452;8.656;2023-07-29T07:10:49;21.30;;;18.20;;
1765;SDS011;880;52.452;8.656;2023-07-29T07:13:19;20.52;;;18.08;;
1765;SDS011;880;52.452;8.656;2023-07-29T07:15:46;20.48;;;18.38;;
1765;SDS011;880;52.452;8.656;2023-07-29T07:18:13;20.50;;;18.33;;
1765;SDS011;880;52.452;8.656;2023-07-29T07:20:40;18.40;;;16.48;;
1765;SDS011;880;52.452;8.656;2023-07-29T07:23:07;21.42;;;19.20;;
1765;SDS011;880;52.452;8.656;2023-07-29T07:25:38;19.95;;;16.73;;
1765;SDS011;880;52.452;8.656;2023-07-29T07:28:05;21.75;;;19.00;;
1765;SDS011;880;52.452;8.656;2023-07-29T07:30:32;17.55;;;15.70;;
1765;SDS011;880;52.452;8.656;2023-07-29T07:32:59;20.88;;;18.75;;
1765;SDS011;880;52.452;8.656;2023-07-29T07:35:26;19.90;;;17.52;;
1765;SDS011;880;52.452;8.656;2023-07-29T07:37:53;20.30;;;17.38;;
1765;SDS011;880;52.452;8.656;2023-07-29T07:40:20;20.98;;;18.08;;
1765;SDS011;880;52.452;8.656;2023-07-29T07:42:48;21.52;;;18.88;;
1765;SDS011;880;52.452;8.656;2023-07-29T07:45:14;18.77;;;16.83;;
1765;SDS011;880;52.452;8.656;2023-07-29T07:47:44;19.92;;;17.65;;
1765;SDS011;880;52.452;8.656;2023-07-29T07:50:11;18.40;;;16.30;;
1765;SDS011;880;52.452;8.656;2023-07-29T07:52:38;21.42;;;18.20;;
1765;SDS011;880;52.452;8.656;2023-07-29T07:55:05;18.77;;;16.40;;
1765;SDS011;880;52.452;8.656;2023-07-29T07:57:33;17.83;;;16.00;;
1765;SDS011;880;52.452;8.656;2023-07-29T08:00:00;19.60;;;17.70;;
1765;SDS011;880;52.452;8.656;2023-07-29T08:02:27;18.17;;;16.35;;
1765;SDS011;880;52.452;8.656;2023-07-29T08:04:54;20.60;;;18.42;;
1765;SDS011;880;52.452;8.656;2023-07-29T08:07:21;18.25;;;15.30;;
1765;SDS011;880;52.452;8.656;2023-07-29T08:09:48;19.90;;;17.15;;
1765;SDS011;880;52.452;8.656;2023-07-29T08:12:15;20.15;;;18.00;;
1765;SDS011;880;52.452;8.656;2023-07-29T08:14:45;19.77;;;17.80;;
1765;SDS011;880;52.452;8.656;2023-07-29T08:17:12;20.95;;;18.63;;
1765;SDS011;880;52.452;8.656;2023-07-29T08:19:39;19.67;;;17.70;;
1765;SDS011;880;52.452;8.656;2023-07-29T08:22:06;19.42;;;17.55;;
1765;SDS011;880;52.452;8.656;2023-07-29T08:24:33;18.85;;;16.70;;
1765;SDS011;880;52.452;8.656;2023-07-29T08:27:00;17.67;;;15.80;;
1765;SDS011;880;52.452;8.656;2023-07-29T08:29:27;20.13;;;18.33;;
1765;SDS011;880;52.452;8.656;2023-07-29T08:31:54;18.08;;;16.25;;
1765;SDS011;880;52.452;8.656;2023-07-29T08:34:21;15.90;;;14.15;;
1765;SDS011;880;52.452;8.656;2023-07-29T08:36:49;16.40;;;14.50;;
1765;SDS011;880;52.452;8.656;2023-07-29T08:39:16;14.00;;;12.48;;
1765;SDS011;880;52.452;8.656;2023-07-29T08:44:40;21.85;;;15.30;;
1765;SDS011;880;52.452;8.656;2023-07-29T08:47:09;16.50;;;14.85;;
1765;SDS011;880;52.452;8.656;2023-07-29T08:49:36;21.15;;;15.50;;
1765;SDS011;880;52.452;8.656;2023-07-29T08:52:04;16.63;;;15.00;;
1765;SDS011;880;52.452;8.656;2023-07-29T08:54:33;18.80;;;14.50;;
1765;SDS011;880;52.452;8.656;2023-07-29T08:57:00;17.23;;;15.43;;
1765;SDS011;880;52.452;8.656;2023-07-29T08:59:28;16.58;;;14.82;;
1765;SDS011;880;52.452;8.656;2023-07-29T09:01:55;16.80;;;14.73;;
1765;SDS011;880;52.452;8.656;2023-07-29T09:04:23;14.75;;;13.00;;
1765;SDS011;880;52.452;8.656;2023-07-29T09:06:51;19.27;;;17.38;;
1765;SDS011;880;52.452;8.656;2023-07-29T09:09:20;19.23;;;16.23;;
1765;SDS011;880;52.452;8.656;2023-07-29T09:11:48;17.80;;;15.82;;
1765;SDS011;880;52.452;8.656;2023-07-29T09:14:15;20.60;;;17.02;;
1765;SDS011;880;52.452;8.656;2023-07-29T09:16:42;17.75;;;16.02;;
1765;SDS011;880;52.452;8.656;2023-07-29T09:19:10;16.85;;;15.25;;
1765;SDS011;880;52.452;8.656;2023-07-29T09:21:40;16.65;;;15.07;;
1765;SDS011;880;52.452;8.656;2023-07-29T09:24:08;19.33;;;15.52;;
1765;SDS011;880;52.452;8.656;2023-07-29T09:26:36;17.58;;;15.77;;
1765;SDS011;880;52.452;8.656;2023-07-29T09:29:03;16.85;;;15.18;;
1765;SDS011;880;52.452;8.656;2023-07-29T09:31:31;16.75;;;15.23;;
1765;SDS011;880;52.452;8.656;2023-07-29T09:34:02;13.02;;;11.80;;
1765;SDS011;880;52.452;8.656;2023-07-29T09:36:30;15.85;;;14.30;;
1765;SDS011;880;52.452;8.656;2023-07-29T09:39:00;14.30;;;13.20;;
1765;SDS011;880;52.452;8.656;2023-07-29T09:41:29;9.95;;;9.10;;
1765;SDS011;880;52.452;8.656;2023-07-29T09:46:33;8.10;;;7.70;;
1765;SDS011;880;52.452;8.656;2023-07-29T09:49:04;8.82;;;8.27;;
1765;SDS011;880;52.452;8.656;2023-07-29T09:51:36;9.43;;;8.75;;
1765;SDS011;880;52.452;8.656;2023-07-29T09:54:05;9.50;;;8.80;;
1765;SDS011;880;52.452;8.656;2023-07-29T09:56:33;8.52;;;7.93;;
1765;SDS011;880;52.452;8.656;2023-07-29T09:59:05;8.40;;;7.90;;
1765;SDS011;880;52.452;8.656;2023-07-29T10:01:32;7.50;;;6.97;;
1765;SDS011;880;52.452;8.656;2023-07-29T10:04:03;7.80;;;7.30;;
1765;SDS011;880;52.452;8.656;2023-07-29T10:06:30;10.05;;;9.50;;
1765;SDS011;880;52.452;8.656;2023-07-29T10:09:01;7.28;;;6.88;;
1765;SDS011;880;52.452;8.656;2023-07-29T10:11:28;7.70;;;7.20;;
1765;SDS011;880;52.452;8.656;2023-07-29T10:13:57;7.85;;;7.35;;
1765;SDS011;880;52.452;8.656;2023-07-29T10:16:35;7.57;;;7.28;;
1765;SDS011;880;52.452;8.656;2023-07-29T10:19:05;7.32;;;7.03;;
1765;SDS011;880;52.452;8.656;2023-07-29T10:21:33;7.30;;;6.90;;
1765;SDS011;880;52.452;8.656;2023-07-29T10:24:06;7.68;;;7.38;;
1765;SDS011;880;52.452;8.656;2023-07-29T10:26:40;7.72;;;7.22;;
1765;SDS011;880;52.452;8.656;2023-07-29T10:29:14;7.35;;;7.05;;
1765;SDS011;880;52.452;8.656;2023-07-29T10:31:46;7.78;;;7.38;;
1765;SDS011;880;52.452;8.656;2023-07-29T10:34:13;8.23;;;7.82;;
1765;SDS011;880;52.452;8.656;2023-07-29T10:36:41;7.72;;;7.43;;
1765;SDS011;880;52.452;8.656;2023-07-29T10:39:08;8.32;;;7.93;;
1765;SDS011;880;52.452;8.656;2023-07-29T10:47:13;9.57;;;9.07;;
1765;SDS011;880;52.452;8.656;2023-07-29T10:49:49;9.02;;;8.63;;
1765;SDS011;880;52.452;8.656;2023-07-29T10:52:30;9.32;;;8.80;;
1765;SDS011;880;52.452;8.656;2023-07-29T10:55:01;7.88;;;7.55;;
1765;SDS011;880;52.452;8.656;2023-07-29T11:00:04;7.72;;;7.32;;
1765;SDS011;880;52.452;8.656;2023-07-29T11:02:35;8.02;;;7.63;;
1765;SDS011;880;52.452;8.656;2023-07-29T11:05:04;7.07;;;6.78;;
1765;SDS011;880;52.452;8.656;2023-07-29T11:07:47;7.88;;;7.57;;
1765;SDS011;880;52.452;8.656;2023-07-29T11:10:15;8.60;;;8.20;;
1765;SDS011;880;52.452;8.656;2023-07-29T11:12:49;7.50;;;7.20;;
1765;SDS011;880;52.452;8.656;2023-07-29T11:17:52;7.78;;;7.47;;
1765;SDS011;880;52.452;8.656;2023-07-29T11:20:28;8.90;;;8.30;;
1765;SDS011;880;52.452;8.656;2023-07-29T11:22:59;8.63;;;8.23;;
1765;SDS011;880;52.452;8.656;2023-07-29T11:25:29;9.05;;;8.55;;
1765;SDS011;880;52.452;8.656;2023-07-29T11:27:57;7.63;;;7.30;;
1765;SDS011;880;52.452;8.656;2023-07-29T11:30:29;10.50;;;10.07;;
1765;SDS011;880;52.452;8.656;2023-07-29T11:32:57;8.32;;;7.97;;
1765;SDS011;880;52.452;8.656;2023-07-29T11:35:25;8.60;;;7.93;;
1765;SDS011;880;52.452;8.656;2023-07-29T11:37:54;8.02;;;7.65;;
1765;SDS011;880;52.452;8.656;2023-07-29T11:40:23;7.43;;;7.13;;
1765;SDS011;880;52.452;8.656;2023-07-29T11:42:52;7.28;;;6.97;;
1765;SDS011;880;52.452;8.656;2023-07-29T11:45:21;7.22;;;6.88;;
1765;SDS011;880;52.452;8.656;2023-07-29T11:47:57;8.00;;;7.70;;
1765;SDS011;880;52.452;8.656;2023-07-29T11:50:25;9.93;;;9.52;;
1765;SDS011;880;52.452;8.656;2023-07-29T11:52:52;7.55;;;7.25;;
1765;SDS011;880;52.452;8.656;2023-07-29T11:55:20;7.75;;;7.38;;
1765;SDS011;880;52.452;8.656;2023-07-29T11:57:48;6.95;;;6.65;;
1765;SDS011;880;52.452;8.656;2023-07-29T12:00:18;7.68;;;7.38;;
1765;SDS011;880;52.452;8.656;2023-07-29T12:02:47;8.43;;;8.02;;
1765;SDS011;880;52.452;8.656;2023-07-29T12:05:16;8.57;;;8.18;;
1765;SDS011;880;52.452;8.656;2023-07-29T12:07:44;8.93;;;8.52;;
1765;SDS011;880;52.452;8.656;2023-07-29T12:10:12;8.45;;;8.05;;
1765;SDS011;880;52.452;8.656;2023-07-29T12:12:46;7.75;;;7.45;;
1765;SDS011;880;52.452;8.656;2023-07-29T12:15:22;8.30;;;7.90;;
1765;SDS011;880;52.452;8.656;2023-07-29T12:17:52;8.23;;;7.93;;
1765;SDS011;880;52.452;8.656;2023-07-29T12:20:24;8.65;;;8.05;;
1765;SDS011;880;52.452;8.656;2023-07-29T12:22:53;8.50;;;8.10;;
1765;SDS011;880;52.452;8.656;2023-07-29T12:25:26;8.18;;;7.78;;
1765;SDS011;880;52.452;8.656;2023-07-29T12:27:53;8.43;;;8.02;;
1765;SDS011;880;52.452;8.656;2023-07-29T12:30:22;8.50;;;8.10;;
1765;SDS011;880;52.452;8.656;2023-07-29T12:32:51;10.75;;;10.35;;
1765;SDS011;880;52.452;8.656;2023-07-29T12:35:18;8.43;;;7.90;;
1765;SDS011;880;52.452;8.656;2023-07-29T12:37:45;9.48;;;8.98;;
1765;SDS011;880;52.452;8.656;2023-07-29T12:40:25;8.73;;;8.32;;
1765;SDS011;880;52.452;8.656;2023-07-29T12:42:53;8.88;;;8.48;;
1765;SDS011;880;52.452;8.656;2023-07-29T12:45:21;9.00;;;8.50;;
1765;SDS011;880;52.452;8.656;2023-07-29T12:47:52;7.85;;;7.55;;
1765;SDS011;880;52.452;8.656;2023-07-29T12:50:20;8.30;;;8.00;;
1765;SDS011;880;52.452;8.656;2023-07-29T12:52:47;8.57;;;8.27;;
1765;SDS011;880;52.452;8.656;2023-07-29T12:55:14;7.95;;;7.65;;
1765;SDS011;880;52.452;8.656;2023-07-29T12:57:45;8.35;;;8.05;;
1765;SDS011;880;52.452;8.656;2023-07-29T13:00:12;8.57;;;8.18;;
1765;SDS011;880;52.452;8.656;2023-07-29T13:02:39;8.63;;;8.23;;
1765;SDS011;880;52.452;8.656;2023-07-29T13:05:08;9.00;;;8.60;;
1765;SDS011;880;52.452;8.656;2023-07-29T13:07:41;8.57;;;8.25;;
1765;SDS011;880;52.452;8.656;2023-07-29T13:10:09;8.65;;;8.25;;
1765;SDS011;880;52.452;8.656;2023-07-29T13:12:36;11.18;;;10.63;;
1765;SDS011;880;52.452;8.656;2023-07-29T13:15:04;8.23;;;7.75;;
1765;SDS011;880;52.452;8.656;2023-07-29T13:17:32;8.70;;;8.30;;
1765;SDS011;880;52.452;8.656;2023-07-29T13:20:00;7.93;;;7.63;;
1765;SDS011;880;52.452;8.656;2023-07-29T13:22:27;9.15;;;8.75;;
1765;SDS011;880;52.452;8.656;2023-07-29T13:24:54;8.10;;;7.75;;
1765;SDS011;880;52.452;8.656;2023-07-29T13:27:21;8.05;;;7.65;;
1765;SDS011;880;52.452;8.656;2023-07-29T13:29:49;8.00;;;7.60;;
1765;SDS011;880;52.452;8.656;2023-07-29T13:32:16;8.02;;;7.63;;
1765;SDS011;880;52.452;8.656;2023-07-29T13:34:43;8.48;;;8.18;;
1765;SDS011;880;52.452;8.656;2023-07-29T13:37:10;8.23;;;7.78;;
1765;SDS011;880;52.452;8.656;2023-07-29T13:39:37;8.43;;;8.05;;
1765;SDS011;880;52.452;8.656;2023-07-29T13:42:04;8.68;;;8.20;;
1765;SDS011;880;52.452;8.656;2023-07-29T13:44:31;9.07;;;8.68;;
1765;SDS011;880;52.452;8.656;2023-07-29T13:46:58;9.40;;;9.00;;
1765;SDS011;880;52.452;8.656;2023-07-29T13:49:25;9.00;;;8.57;;
1765;SDS011;880;52.452;8.656;2023-07-29T13:51:52;8.68;;;8.25;;
1765;SDS011;880;52.452;8.656;2023-07-29T13:54:19;8.40;;;8.00;;
1765;SDS011;880;52.452;8.656;2023-07-29T13:56:47;9.20;;;8.57;;
1765;SDS011;880;52.452;8.656;2023-07-29T13:59:14;8.95;;;8.55;;
1765;SDS011;880;52.452;8.656;2023-07-29T14:01:41;9.95;;;9.13;;
1765;SDS011;880;52.452;8.656;2023-07-29T14:04:08;9.32;;;8.82;;
1765;SDS011;880;52.452;8.656;2023-07-29T14:06:35;9.60;;;9.10;;
1765;SDS011;880;52.452;8.656;2023-07-29T14:09:11;10.45;;;9.73;;
1765;SDS011;880;52.452;8.656;2023-07-29T14:11:38;9.55;;;9.05;;
1765;SDS011;880;52.452;8.656;2023-07-29T14:14:06;8.63;;;8.23;;
1765;SDS011;880;52.452;8.656;2023-07-29T14:16:35;9.05;;;8.65;;
1765;SDS011;880;52.452;8.656;2023-07-29T14:19:02;8.73;;;8.23;;
1765;SDS011;880;52.452;8.656;2023-07-29T14:21:29;9.25;;;8.80;;
1765;SDS011;880;52.452;8.656;2023-07-29T14:23:56;8.50;;;8.10;;
1765;SDS011;880;52.452;8.656;2023-07-29T14:26:23;9.88;;;9.27;;
1765;SDS011;880;52.452;8.656;2023-07-29T14:28:50;9.38;;;8.88;;
1765;SDS011;880;52.452;8.656;2023-07-29T14:31:17;9.48;;;8.98;;
1765;SDS011;880;52.452;8.656;2023-07-29T14:33:45;8.63;;;8.23;;
1765;SDS011;880;52.452;8.656;2023-07-29T14:36:12;9.63;;;9.00;;
1765;SDS011;880;52.452;8.656;2023-07-29T14:38:39;9.63;;;9.13;;
1765;SDS011;880;52.452;8.656;2023-07-29T14:41:06;10.20;;;9.60;;
1765;SDS011;880;52.452;8.656;2023-07-29T14:43:33;9.93;;;9.43;;
1765;SDS011;880;52.452;8.656;2023-07-29T14:46:01;9.50;;;8.90;;
1765;SDS011;880;52.452;8.656;2023-07-29T14:48:29;9.60;;;9.13;;
1765;SDS011;880;52.452;8.656;2023-07-29T14:50:56;9.20;;;8.60;;
1765;SDS011;880;52.452;8.656;2023-07-29T14:53:23;9.25;;;8.85;;
1765;SDS011;880;52.452;8.656;2023-07-29T14:55:50;9.18;;;8.68;;
1765;SDS011;880;52.452;8.656;2023-07-29T14:58:17;8.43;;;7.93;;
1765;SDS011;880;52.452;8.656;2023-07-29T15:00:44;9.07;;;8.68;;
1765;SDS011;880;52.452;8.656;2023-07-29T15:03:11;8.30;;;7.78;;
1765;SDS011;880;52.452;8.656;2023-07-29T15:05:38;8.32;;;7.93;;
1765;SDS011;880;52.452;8.656;2023-07-29T15:08:06;8.85;;;8.20;;
1765;SDS011;880;52.452;8.656;2023-07-29T15:10:33;8.45;;;8.05;;
1765;SDS011;880;52.452;8.656;2023-07-29T15:13:00;7.45;;;7.15;;
1765;SDS011;880;52.452;8.656;2023-07-29T15:15:28;8.10;;;7.70;;
1765;SDS011;880;52.452;8.656;2023-07-29T15:17:55;7.55;;;7.25;;
1765;SDS011;880;52.452;8.656;2023-07-29T15:20:23;7.28;;;6.85;;
1765;SDS011;880;52.452;8.656;2023-07-29T15:22:50;8.40;;;7.90;;
1765;SDS011;880;52.452;8.656;2023-07-29T15:25:17;8.48;;;8.07;;
1765;SDS011;880;52.452;8.656;2023-07-29T15:27:44;7.28;;;6.97;;
1765;SDS011;880;52.452;8.656;2023-07-29T15:30:11;7.63;;;6.97;;
1765;SDS011;880;52.452;8.656;2023-07-29T15:32:39;7.15;;;6.78;;
1765;SDS011;880;52.452;8.656;2023-07-29T15:35:07;7.28;;;6.78;;
1765;SDS011;880;52.452;8.656;2023-07-29T15:37:34;7.43;;;7.03;;
1765;SDS011;880;52.452;8.656;2023-07-29T15:40:01;6.53;;;6.13;;
1765;SDS011;880;52.452;8.656;2023-07-29T15:42:28;6.68;;;6.38;;
1765;SDS011;880;52.452;8.656;2023-07-29T15:44:56;7.32;;;7.03;;
1765;SDS011;880;52.452;8.656;2023-07-29T15:47:22;7.10;;;6.70;;
1765;SDS011;880;52.452;8.656;2023-07-29T15:49:49;7.90;;;6.85;;